createdAt,value
2022-10-27T00:01:39.302Z,96.55
2022-10-27T00:04:08.645Z,95.57
2022-10-27T00:06:39.638Z,95.76
2022-10-27T00:09:09.107Z,96.77
2022-10-27T00:11:38.705Z,96.93
2022-10-27T00:14:08.237Z,96.26
2022-10-27T00:16:37.562Z,94.95
2022-10-27T00:19:07.278Z,94.58
2022-10-27T00:21:37.987Z,95.62
2022-10-27T00:24:07.897Z,95.26
2022-10-27T00:26:37.455Z,94.74
2022-10-27T00:29:07.012Z,94.72
2022-10-27T00:31:36.692Z,93.95
2022-10-27T00:34:06.096Z,97.79
2022-10-27T00:36:35.432Z,93.25
2022-10-27T00:39:06.400Z,92.73
2022-10-27T00:41:37.645Z,96.50
2022-10-27T00:44:29.965Z,95.61
2022-10-27T00:47:01.204Z,96.62
2022-10-27T00:49:34.681Z,94.59
2022-10-27T00:52:06.709Z,96.36
2022-10-27T00:54:40.034Z,93.44
2022-10-27T00:57:10.955Z,93.43
2022-10-27T00:59:40.842Z,92.04
2022-10-27T01:02:11.025Z,93.05
2022-10-27T01:04:45.238Z,90.65
2022-10-27T01:07:16.071Z,91.24
2022-10-27T01:09:47.526Z,92.20
2022-10-27T01:12:16.873Z,92.30
2022-10-27T01:14:46.522Z,90.72
2022-10-27T01:17:33.384Z,93.96
2022-10-27T01:20:39.816Z,93.62
2022-10-27T01:23:15.873Z,91.99
2022-10-27T01:26:34.308Z,93.50
2022-10-27T01:29:55.286Z,92.05
2022-10-27T01:32:30.172Z,91.69
2022-10-27T01:35:04.188Z,90.05
2022-10-27T01:37:39.708Z,91.76
2022-10-27T01:40:16.353Z,93.99
2022-10-27T01:42:50.357Z,92.86
2022-10-27T01:45:22.998Z,90.81
2022-10-27T01:47:54.687Z,91.93
2022-10-27T01:50:36.054Z,95.55
2022-10-27T01:53:18.652Z,91.87
2022-10-27T01:55:58.289Z,90.29
2022-10-27T01:58:36.123Z,89.26
2022-10-27T02:01:16.129Z,90.38
2022-10-27T02:03:52.045Z,91.13
2022-10-27T02:06:25.068Z,91.33
2022-10-27T02:08:56.404Z,95.04
2022-10-27T02:11:26.194Z,94.95
2022-10-27T02:13:59.055Z,92.38
2022-10-27T02:16:31.699Z,91.02
2022-10-27T02:19:07.062Z,92.89
2022-10-27T02:21:38.467Z,90.36
2022-10-27T02:24:08.838Z,91.08
2022-10-27T02:26:39.611Z,93.36
2022-10-27T02:29:13.829Z,92.48
2022-10-27T02:31:44.927Z,92.42
2022-10-27T02:34:16.701Z,91.74
2022-10-27T02:36:46.426Z,92.04
2022-10-27T02:39:16.344Z,90.82
2022-10-27T02:41:45.672Z,90.42
2022-10-27T02:44:14.973Z,92.73
2022-10-27T02:46:45.498Z,90.50
2022-10-27T02:49:16.518Z,93.53
2022-10-27T02:51:45.950Z,97.01
2022-10-27T02:54:15.288Z,95.38
2022-10-27T02:56:44.532Z,96.53
2022-10-27T02:59:14.311Z,93.03
2022-10-27T03:01:43.740Z,92.56
2022-10-27T03:04:13.347Z,89.92
2022-10-27T03:06:44.423Z,90.24
2022-10-27T03:09:13.625Z,91.76
2022-10-27T03:11:45.500Z,91.57
2022-10-27T03:14:15.780Z,92.12
2022-10-27T03:16:45.409Z,91.48
2022-10-27T03:19:14.690Z,89.88
2022-10-27T03:21:45.519Z,85.85
2022-10-27T03:24:14.970Z,89.96
2022-10-27T03:26:44.262Z,92.42
2022-10-27T03:29:16.316Z,91.51
2022-10-27T03:31:45.892Z,91.91
2022-10-27T03:34:18.816Z,94.35
2022-10-27T03:36:52.082Z,94.11
2022-10-27T03:39:21.419Z,93.32
2022-10-27T03:41:53.261Z,91.71
2022-10-27T03:44:22.761Z,90.61
2022-10-27T03:46:52.026Z,91.62
2022-10-27T03:49:21.353Z,89.35
2022-10-27T03:51:52.266Z,91.76
2022-10-27T03:54:21.840Z,90.29
2022-10-27T03:56:51.240Z,92.02
2022-10-27T03:59:20.604Z,91.42
2022-10-27T04:01:50.304Z,93.63
2022-10-27T04:04:19.909Z,94.90
2022-10-27T04:06:49.144Z,93.34
2022-10-27T04:09:20.341Z,95.05
2022-10-27T04:11:49.898Z,95.73
2022-10-27T04:14:19.696Z,92.89
2022-10-27T04:16:51.564Z,97.05
2022-10-27T04:19:21.080Z,99.79
2022-10-27T04:21:50.482Z,100.00
2022-10-27T04:24:21.118Z,100.00
2022-10-27T04:26:50.502Z,96.24
2022-10-27T04:29:19.829Z,94.16
2022-10-27T04:31:49.117Z,94.17
2022-10-27T04:34:18.536Z,95.31
2022-10-27T04:36:47.824Z,92.65
2022-10-27T04:39:17.124Z,93.01
2022-10-27T04:41:47.968Z,96.10
2022-10-27T04:44:17.216Z,98.45
2022-10-27T04:46:46.607Z,95.98
2022-10-27T04:49:15.997Z,95.99
2022-10-27T04:51:44.946Z,93.24
2022-10-27T04:54:13.981Z,94.05
2022-10-27T04:56:43.274Z,95.86
2022-10-27T04:59:14.927Z,96.00
2022-10-27T05:01:44.522Z,96.12
2022-10-27T05:04:13.802Z,97.99
2022-10-27T05:06:43.667Z,94.09
2022-10-27T05:09:13.090Z,97.33
2022-10-27T05:11:42.369Z,98.01
2022-10-27T05:14:13.174Z,94.27
2022-10-27T05:16:42.556Z,93.84
2022-10-27T05:19:12.124Z,94.21
2022-10-27T05:21:41.557Z,94.83
2022-10-27T05:24:11.403Z,93.52
2022-10-27T05:26:40.660Z,93.98
2022-10-27T05:29:09.940Z,95.98
2022-10-27T05:31:40.747Z,93.69
2022-10-27T05:34:10.128Z,95.58
2022-10-27T05:36:41.732Z,91.05
2022-10-27T05:39:13.131Z,95.56
2022-10-27T05:41:42.805Z,94.54
2022-10-27T05:44:12.043Z,92.37
2022-10-27T05:46:42.890Z,94.45
2022-10-27T05:49:12.170Z,91.85
2022-10-27T05:51:41.623Z,90.54
2022-10-27T05:54:11.058Z,92.11
2022-10-27T05:56:40.360Z,94.02
2022-10-27T05:59:10.814Z,96.12
2022-10-27T06:01:42.237Z,95.95
2022-10-27T06:04:11.644Z,94.98
2022-10-27T06:06:41.131Z,92.77
2022-10-27T06:09:10.766Z,93.02
2022-10-27T06:11:40.075Z,90.82
2022-10-27T06:14:09.458Z,92.98
2022-10-27T06:16:38.948Z,91.95
2022-10-27T06:19:09.802Z,92.95
2022-10-27T06:21:39.273Z,92.20
2022-10-27T06:24:09.759Z,92.87
2022-10-27T06:26:39.210Z,91.69
2022-10-27T06:29:10.800Z,94.52
2022-10-27T06:31:42.884Z,94.89
2022-10-27T06:34:13.593Z,94.49
2022-10-27T06:36:43.084Z,95.17
2022-10-27T06:39:12.718Z,94.99
2022-10-27T06:41:41.927Z,94.70
2022-10-27T06:44:11.327Z,94.69
2022-10-27T06:46:40.698Z,94.86
2022-10-27T06:49:11.374Z,95.84
2022-10-27T06:51:44.200Z,93.71
2022-10-27T06:54:13.477Z,95.87
2022-10-27T06:56:42.829Z,93.56
2022-10-27T06:59:12.641Z,97.47
2022-10-27T07:01:41.933Z,94.06
2022-10-27T07:04:11.427Z,96.03
2022-10-27T07:06:42.296Z,97.40
2022-10-27T07:09:12.680Z,96.09
2022-10-27T07:11:41.930Z,96.39
2022-10-27T07:14:11.169Z,96.24
2022-10-27T07:16:41.018Z,96.75
2022-10-27T07:19:10.331Z,97.27
2022-10-27T07:21:40.011Z,99.15
2022-10-27T07:24:14.398Z,100.00
2022-10-27T07:26:44.282Z,100.00
2022-10-27T07:29:13.931Z,100.00
2022-10-27T07:31:46.058Z,100.00
2022-10-27T07:34:15.722Z,100.00
2022-10-27T07:36:45.065Z,100.00
2022-10-27T07:39:15.799Z,100.00
2022-10-27T07:41:45.147Z,100.00
2022-10-27T07:44:14.092Z,100.00
2022-10-27T07:46:44.734Z,100.00
2022-10-27T07:49:14.332Z,100.00
2022-10-27T07:51:44.005Z,100.00
2022-10-27T07:54:15.009Z,100.00
2022-10-27T07:56:47.007Z,100.00
2022-10-27T07:59:16.693Z,100.00
2022-10-27T08:01:48.034Z,100.00
2022-10-27T08:04:17.643Z,100.00
2022-10-27T08:06:46.937Z,100.00
2022-10-27T08:09:20.008Z,100.00
2022-10-27T08:11:49.726Z,100.00
2022-10-27T08:14:19.826Z,100.00
2022-10-27T08:16:49.442Z,100.00
2022-10-27T08:19:19.100Z,100.00
2022-10-27T08:21:48.467Z,100.00
2022-10-27T08:24:19.381Z,100.00
2022-10-27T08:26:48.888Z,99.92
2022-10-27T08:29:18.193Z,100.00
2022-10-27T08:31:47.610Z,100.00
2022-10-27T08:36:51.411Z,100.00
2022-10-27T08:39:22.185Z,99.10
2022-10-27T08:41:59.137Z,100.00
2022-10-27T08:44:32.124Z,100.00
2022-10-27T08:47:05.702Z,99.00
2022-10-27T08:49:43.350Z,99.28
2022-10-27T08:52:19.080Z,99.10
2022-10-27T08:54:52.839Z,97.76
2022-10-27T08:57:27.132Z,99.57
2022-10-27T08:59:57.379Z,100.00
2022-10-27T09:02:49.438Z,98.48
2022-10-27T09:05:47.403Z,100.00
2022-10-27T09:08:21.601Z,99.66
2022-10-27T09:10:59.420Z,99.47
2022-10-27T09:13:50.952Z,99.54
2022-10-27T09:16:28.740Z,92.14
2022-10-27T09:18:59.872Z,91.31
2022-10-27T09:21:30.590Z,89.00
2022-10-27T09:24:03.783Z,92.34
2022-10-27T09:26:35.677Z,93.42
2022-10-27T09:29:08.600Z,90.47
2022-10-27T09:31:41.742Z,94.17
2022-10-27T09:34:17.892Z,90.10
2022-10-27T09:36:47.395Z,91.97
2022-10-27T09:41:52.945Z,92.46
2022-10-27T09:46:56.215Z,89.23
2022-10-27T09:49:30.406Z,89.55
2022-10-27T09:52:03.692Z,87.95
2022-10-27T09:54:35.094Z,89.66
2022-10-27T09:57:07.839Z,84.35
2022-10-27T09:59:38.000Z,84.97
2022-10-27T10:02:30.322Z,83.64
2022-10-27T10:05:00.010Z,78.75
2022-10-27T10:07:33.643Z,75.01
2022-10-27T10:10:07.822Z,77.48
2022-10-27T10:12:38.698Z,65.54
2022-10-27T10:15:20.034Z,64.48
2022-10-27T10:18:00.432Z,64.99
2022-10-27T10:20:34.998Z,64.78
2022-10-27T10:23:08.894Z,63.79
2022-10-27T10:25:47.602Z,67.67
2022-10-27T10:28:25.655Z,71.12
2022-10-27T10:30:57.231Z,64.85
2022-10-27T10:33:27.620Z,64.74
2022-10-27T10:35:58.392Z,64.20
2022-10-27T10:38:28.816Z,62.74
2022-10-27T10:41:06.397Z,63.78
2022-10-27T10:43:39.709Z,58.19
2022-10-27T10:46:17.932Z,63.32
2022-10-27T10:48:51.889Z,57.89
2022-10-27T10:51:28.352Z,57.53
2022-10-27T10:54:01.698Z,57.11
2022-10-27T10:56:32.249Z,59.14
2022-10-27T10:59:08.664Z,56.92
2022-10-27T11:01:43.569Z,57.18
2022-10-27T11:04:13.999Z,59.25
2022-10-27T11:07:06.293Z,57.22
2022-10-27T11:09:39.706Z,58.56
2022-10-27T11:12:15.405Z,53.91
2022-10-27T11:14:49.765Z,57.83
2022-10-27T11:17:23.880Z,54.39
2022-10-27T11:19:56.942Z,53.53
2022-10-27T11:22:27.918Z,55.40
2022-10-27T11:25:01.907Z,53.19
2022-10-27T11:27:36.256Z,56.82
2022-10-27T11:30:23.516Z,51.76
2022-10-27T11:33:02.062Z,54.05
2022-10-27T11:35:34.610Z,53.10
2022-10-27T11:38:08.475Z,50.76
2022-10-27T11:40:45.809Z,52.10
2022-10-27T11:43:20.795Z,52.43
2022-10-27T11:45:57.467Z,53.75
2022-10-27T11:48:31.345Z,47.96
2022-10-27T11:51:04.375Z,51.39
2022-10-27T11:53:37.568Z,49.69
2022-10-27T11:56:29.363Z,47.49
2022-10-27T11:59:08.136Z,46.94
2022-10-27T12:01:52.737Z,47.91
2022-10-27T12:04:41.803Z,44.23
2022-10-27T12:07:16.078Z,45.43
2022-10-27T12:09:58.782Z,47.39
2022-10-27T12:12:32.109Z,46.96
2022-10-27T12:15:06.157Z,45.25
2022-10-27T12:17:43.405Z,48.50
2022-10-27T12:20:16.370Z,46.83
2022-10-27T12:22:50.885Z,42.08
2022-10-27T12:25:23.302Z,42.92
2022-10-27T12:27:55.262Z,42.56
2022-10-27T12:30:25.696Z,41.76
2022-10-27T12:33:00.770Z,43.62
2022-10-27T12:35:34.192Z,40.46
2022-10-27T12:38:10.998Z,44.66
2022-10-27T12:40:45.031Z,41.24
2022-10-27T12:43:20.754Z,44.18
2022-10-27T12:46:12.859Z,44.40
2022-10-27T12:48:49.554Z,42.93
2022-10-27T12:51:28.919Z,43.82
2022-10-27T12:54:07.161Z,44.77
2022-10-27T12:56:44.529Z,44.92
2022-10-27T12:59:22.226Z,43.27
2022-10-27T13:01:58.099Z,44.13
2022-10-27T13:04:54.132Z,40.46
2022-10-27T13:07:57.579Z,42.35
2022-10-27T13:10:54.638Z,43.41
2022-10-27T13:13:41.310Z,44.32
2022-10-27T13:16:14.873Z,45.46
2022-10-27T13:18:55.342Z,45.30
2022-10-27T13:21:29.375Z,46.11
2022-10-27T13:24:06.395Z,45.10
2022-10-27T13:26:38.362Z,47.38
2022-10-27T13:29:13.699Z,47.22
2022-10-27T13:31:43.031Z,48.05
2022-10-27T13:34:22.019Z,46.64
2022-10-27T13:37:31.705Z,47.27
2022-10-27T13:40:01.743Z,48.73
2022-10-27T13:42:31.348Z,46.31
2022-10-27T13:45:41.718Z,47.89
2022-10-27T13:48:35.458Z,50.09
2022-10-27T13:51:48.639Z,47.71
2022-10-27T13:54:54.800Z,50.73
2022-10-27T13:57:55.585Z,49.60
2022-10-27T14:00:29.072Z,49.14
2022-10-27T14:03:23.771Z,48.63
2022-10-27T14:05:53.396Z,49.31
2022-10-27T14:08:24.792Z,48.18
2022-10-27T14:10:56.843Z,51.30
2022-10-27T14:13:28.899Z,49.35
2022-10-27T14:16:02.787Z,49.21
2022-10-27T14:18:33.651Z,51.93
2022-10-27T14:21:11.696Z,49.83
2022-10-27T14:23:43.956Z,50.88
2022-10-27T14:26:30.954Z,51.74
2022-10-27T14:29:00.305Z,53.84
2022-10-27T14:31:31.422Z,52.29
2022-10-27T14:34:17.750Z,52.01
2022-10-27T14:36:47.731Z,54.09
2022-10-27T14:39:25.603Z,56.53
2022-10-27T14:41:58.724Z,55.21
2022-10-27T14:44:30.135Z,57.28
2022-10-27T14:47:01.970Z,55.49
2022-10-27T14:49:35.235Z,58.32
2022-10-27T14:52:08.795Z,60.43
2022-10-27T14:54:38.385Z,57.89
2022-10-27T14:57:31.786Z,60.61
2022-10-27T15:00:01.699Z,61.85
2022-10-27T15:02:31.307Z,62.73
2022-10-27T15:05:14.255Z,63.95
2022-10-27T15:07:47.117Z,64.53
2022-10-27T15:10:19.855Z,65.69
2022-10-27T15:12:53.627Z,67.05
2022-10-27T15:15:24.265Z,69.18
2022-10-27T15:17:54.334Z,70.37
2022-10-27T15:20:23.975Z,72.30
2022-10-27T15:22:54.649Z,72.38
2022-10-27T15:25:24.823Z,73.66
2022-10-27T15:27:55.965Z,74.17
2022-10-27T15:30:25.780Z,74.61
2022-10-27T15:32:55.603Z,74.60
2022-10-27T15:35:33.228Z,76.30
2022-10-27T15:38:03.558Z,76.70
2022-10-27T15:40:41.057Z,77.48
2022-10-27T15:43:36.684Z,78.21
2022-10-27T15:46:21.628Z,78.07
2022-10-27T15:48:54.831Z,78.52
2022-10-27T15:51:24.319Z,78.96
2022-10-27T15:53:55.146Z,79.25
2022-10-27T15:56:37.029Z,79.83
2022-10-27T15:59:16.981Z,80.39
2022-10-27T16:01:47.370Z,80.94
2022-10-27T16:04:31.235Z,80.29
2022-10-27T16:07:31.555Z,81.63
2022-10-27T16:10:01.152Z,82.62
2022-10-27T16:12:37.998Z,82.02
2022-10-27T16:15:17.816Z,82.49
2022-10-27T16:17:49.212Z,82.40
2022-10-27T16:20:21.456Z,82.62
2022-10-27T16:22:51.878Z,83.84
2022-10-27T16:25:25.155Z,83.69
2022-10-27T16:27:54.613Z,85.03
2022-10-27T16:30:25.897Z,84.96
2022-10-27T16:33:01.798Z,85.83
2022-10-27T16:35:31.795Z,86.05
2022-10-27T16:38:01.550Z,86.46
2022-10-27T16:40:31.276Z,86.33
2022-10-27T16:43:03.068Z,86.75
2022-10-27T16:45:33.980Z,85.61
2022-10-27T16:48:03.851Z,86.27
2022-10-27T16:50:33.122Z,86.91
2022-10-27T16:53:02.742Z,88.40
2022-10-27T16:55:32.167Z,87.94
2022-10-27T16:58:01.693Z,88.77
2022-10-27T17:00:33.287Z,88.09
2022-10-27T17:03:02.991Z,88.26
2022-10-27T17:05:32.167Z,88.29
2022-10-27T17:08:01.217Z,89.19
2022-10-27T17:10:30.848Z,88.93
2022-10-27T17:13:00.372Z,90.53
2022-10-27T17:15:29.609Z,90.60
2022-10-27T17:18:01.108Z,90.76
2022-10-27T17:20:31.088Z,90.68
2022-10-27T17:23:04.935Z,90.96
2022-10-27T17:25:34.655Z,90.88
2022-10-27T17:28:04.008Z,90.61
2022-10-27T17:30:34.762Z,91.28
2022-10-27T17:33:05.763Z,92.26
2022-10-27T17:35:35.125Z,91.69
2022-10-27T17:38:04.461Z,92.05
2022-10-27T17:40:33.771Z,91.68
2022-10-27T17:43:03.297Z,92.90
2022-10-27T17:45:32.945Z,91.60
2022-10-27T17:48:02.288Z,93.13
2022-10-27T17:50:33.738Z,92.27
2022-10-27T17:53:03.036Z,92.33
2022-10-27T17:55:32.345Z,92.26
2022-10-27T17:58:01.728Z,92.30
2022-10-27T18:00:31.110Z,93.75
2022-10-27T18:03:02.999Z,93.80
2022-10-27T18:05:34.227Z,93.13
2022-10-27T18:08:03.311Z,93.96
2022-10-27T18:10:33.933Z,93.08
2022-10-27T18:13:03.522Z,93.97
2022-10-27T18:15:36.522Z,93.59
2022-10-27T18:18:07.206Z,95.14
2022-10-27T18:20:37.908Z,94.57
2022-10-27T18:23:07.287Z,93.54
2022-10-27T18:25:36.570Z,93.73
2022-10-27T18:28:06.212Z,95.12
2022-10-27T18:30:35.521Z,94.25
2022-10-27T18:33:06.871Z,95.02
2022-10-27T18:35:37.642Z,94.65
2022-10-27T18:38:06.965Z,95.30
2022-10-27T18:40:36.691Z,95.43
2022-10-27T18:43:06.033Z,96.44
2022-10-27T18:45:35.419Z,95.68
2022-10-27T18:48:05.282Z,94.87
2022-10-27T18:50:36.003Z,95.15
2022-10-27T18:53:05.304Z,93.28
2022-10-27T18:55:37.580Z,95.63
2022-10-27T18:58:07.542Z,94.46
2022-10-27T19:00:36.854Z,93.04
2022-10-27T19:03:06.214Z,93.78
2022-10-27T19:05:37.636Z,96.67
2022-10-27T19:08:07.136Z,96.84
2022-10-27T19:10:37.009Z,96.13
2022-10-27T19:13:06.322Z,96.69
2022-10-27T19:15:35.763Z,95.16
2022-10-27T19:18:04.853Z,96.31
2022-10-27T19:20:34.072Z,96.89
2022-10-27T19:23:05.033Z,94.52
2022-10-27T19:25:34.390Z,97.34
2022-10-27T19:28:03.931Z,97.93
2022-10-27T19:30:33.437Z,97.08
2022-10-27T19:33:02.936Z,99.91
2022-10-27T19:35:32.126Z,97.04
2022-10-27T19:38:01.380Z,96.74
2022-10-27T19:40:32.256Z,97.52
2022-10-27T19:43:02.304Z,96.45
2022-10-27T19:45:31.905Z,96.35
2022-10-27T19:48:04.142Z,95.77
2022-10-27T19:50:36.086Z,97.98
2022-10-27T19:53:06.823Z,97.41
2022-10-27T19:55:38.019Z,98.59
2022-10-27T19:58:07.598Z,97.61
2022-10-27T20:00:37.238Z,96.36
2022-10-27T20:03:06.440Z,95.87
2022-10-27T20:05:35.816Z,96.01
2022-10-27T20:08:05.235Z,93.63
2022-10-27T20:10:34.476Z,95.39
2022-10-27T20:13:05.302Z,94.44
2022-10-27T20:15:34.578Z,96.36
2022-10-27T20:18:04.066Z,98.26
2022-10-27T20:20:33.387Z,97.27
2022-10-27T20:23:02.810Z,98.42
2022-10-27T20:25:32.113Z,97.34
2022-10-27T20:28:01.414Z,96.15
2022-10-27T20:30:32.359Z,97.12
2022-10-27T20:33:01.653Z,96.95
2022-10-27T20:35:30.971Z,95.73
2022-10-27T20:38:00.261Z,94.79
2022-10-27T20:40:29.597Z,96.83
2022-10-27T20:42:58.874Z,98.21
2022-10-27T20:45:28.203Z,96.96
2022-10-27T20:47:59.411Z,96.63
2022-10-27T20:50:28.723Z,98.24
2022-10-27T20:52:57.901Z,96.29
2022-10-27T20:55:27.489Z,97.78
2022-10-27T20:57:57.057Z,96.64
2022-10-27T21:00:26.272Z,94.55
2022-10-27T21:02:55.423Z,97.03
2022-10-27T21:05:26.224Z,94.83
2022-10-27T21:07:55.556Z,94.44
2022-10-27T21:10:25.147Z,95.43
2022-10-27T21:12:54.901Z,96.10
2022-10-27T21:15:24.064Z,95.81
2022-10-27T21:17:54.657Z,94.92
2022-10-27T21:20:25.472Z,95.76
2022-10-27T21:22:56.275Z,94.05
2022-10-27T21:25:26.862Z,95.57
2022-10-27T21:27:57.371Z,94.91
2022-10-27T21:30:27.220Z,95.31
2022-10-27T21:32:56.930Z,93.16
2022-10-27T21:35:27.932Z,95.39
2022-10-27T21:37:57.559Z,92.56
2022-10-27T21:40:26.801Z,94.86
2022-10-27T21:42:58.261Z,93.57
2022-10-27T21:45:28.009Z,95.48
2022-10-27T21:47:58.826Z,93.12
2022-10-27T21:50:29.641Z,94.04
2022-10-27T21:52:58.953Z,94.41
2022-10-27T21:55:28.542Z,93.98
2022-10-27T21:57:57.877Z,96.28
2022-10-27T22:00:27.086Z,95.98
2022-10-27T22:02:56.536Z,95.16
2022-10-27T22:05:25.877Z,95.81
2022-10-27T22:07:56.891Z,94.36
2022-10-27T22:10:26.753Z,92.73
2022-10-27T22:12:56.067Z,92.02
2022-10-27T22:15:25.558Z,92.24
2022-10-27T22:17:55.788Z,92.47
2022-10-27T22:20:25.009Z,93.45
2022-10-27T22:22:56.319Z,94.23
2022-10-27T22:25:25.674Z,92.08
2022-10-27T22:27:55.331Z,94.51
2022-10-27T22:30:24.837Z,92.50
2022-10-27T22:32:55.322Z,93.68
2022-10-27T22:35:24.872Z,91.10
2022-10-27T22:37:55.705Z,92.69
2022-10-27T22:40:26.076Z,92.03
2022-10-27T22:42:55.327Z,91.50
2022-10-27T22:45:24.861Z,91.89
2022-10-27T22:47:54.895Z,93.14
2022-10-27T22:50:24.416Z,93.73
2022-10-27T22:52:55.036Z,93.67
2022-10-27T22:55:24.266Z,90.05
2022-10-27T22:57:53.616Z,92.42
2022-10-27T23:00:23.220Z,92.12
2022-10-27T23:02:52.692Z,91.18
2022-10-27T23:05:22.079Z,91.09
2022-10-27T23:07:54.440Z,91.35
2022-10-27T23:10:25.177Z,91.87
2022-10-27T23:12:55.092Z,92.73
2022-10-27T23:15:24.831Z,92.86
2022-10-27T23:17:54.172Z,94.58
2022-10-27T23:20:23.371Z,92.70
2022-10-27T23:22:53.123Z,93.44
2022-10-27T23:25:22.609Z,91.62
2022-10-27T23:27:55.161Z,93.86
2022-10-27T23:30:24.696Z,93.40
2022-10-27T23:32:54.178Z,92.92
2022-10-27T23:35:23.399Z,93.67
2022-10-27T23:37:53.801Z,94.98
2022-10-27T23:40:23.289Z,93.52
2022-10-27T23:42:54.869Z,94.82
2022-10-27T23:45:24.875Z,92.54
2022-10-27T23:47:54.761Z,90.61
2022-10-27T23:50:23.954Z,92.75
2022-10-27T23:52:53.599Z,93.32
2022-10-27T23:55:23.045Z,91.36
2022-10-27T23:57:53.894Z,90.43
